Pardubice, Czech Republic
Current Conditions -  °F | °C
As of 2:00 PM on Thursday 23 Oct 2014 (Local Time) from LKPD Reporting Station
Broken Clouds Broken Clouds  
Wind Chill: 50°   Ceiling: 2000
Heat Index: 50°   Visibility: 6mi
Dew Point: 45°   Wind: 8mph
Humidity: 82%   Direction: 20°NNE
Pressure: 30.03"   Gusts: NA
Location:  50.03°N, 15.77°E
Report Text: LKPD 231200Z 02007KT 280V070 9999 BKN020 BKN040 10/07 Q1017 NOSIG
Loading
Personal Weather Stations






























Interactive Weather Map
Tropical Storm Tracking
New forecast layout! Learn more

10-Day Weather Forecast

Advertisements
Track Severe Weather on mobile